El Moro, Colorado
Current Conditions -  °F | °C
As of 4:54 AM on Sunday 25 Jan 2015 (Local Time) from KTAD Reporting Station
Clear Clear  
Wind Chill: 26°   Ceiling: Unl
Heat Index: 31°   Visibility: 10mi
Dew Point: 25°   Wind: 5mph
Humidity: 79%   Direction: 180°S
Pressure: 30.2"   Gusts: NA
Location:  37.1661°N, 104.486°W
Report Text: KTAD 251154Z AUTO 18004KT 10SM CLR M01/M04 A3020 RMK AO2 SLP220 T10061039 10017 21017 53003
Loading
Personal Weather Stations






























Interactive Weather Map New forecast layout! Learn more

10-Day Weather Forecast

Advertisements
Track Severe Weather on mobile